Tuesday, July 29, 2014, 8:41 AM EDT

KOFP, Hanover County Municipal

Location: Ashland, VA, United States Lat: 37.7
Local Time: 8:41 AM EDT (12:41 GMT) Lon: -77.433
Time Zone: US/Eastern Elev: 203 ft

Show me the last for .
Show Decoded

2014-07-29 07:54 METAR KOFP 291154Z AUTO VRB04KT 10SM OVC100 18/12 A2997 RMK AO2 SLP147 T01780122
                 10189 20156 51022 =
2014-07-29 06:54 METAR KOFP 291054Z AUTO VRB03KT 10SM BKN100 17/12 A2995 RMK AO2 SLP141 T01670122
                 =
2014-07-29 05:54 METAR KOFP 290954Z AUTO VRB03KT 10SM SCT100 17/12 A2993 RMK AO2 SLP133 T01670122
                 =
2014-07-29 03:54 METAR KOFP 290754Z AUTO 31003KT 10SM CLR 17/13 A2989 RMK AO2 SLP119 T01720133 =
2014-07-29 02:54 METAR KOFP 290654Z AUTO 00000KT 10SM CLR 18/14 A2988 RMK AO2 SLP115 T01830139 =
2014-07-29 01:54 METAR KOFP 290554Z AUTO 30005KT 10SM CLR 18/14 A2988 RMK AO2 SLP115 T01830139
                 10261 20183 53005 =
2014-07-29 00:54 METAR KOFP 290454Z AUTO 32003KT 10SM CLR 21/14 A2987 RMK AO2 SLP111 T02060139
                 403110200 =
2014-07-28 23:54 METAR KOFP 290354Z AUTO 31008KT 10SM CLR 21/14 A2986 RMK AO2 SLP108 T02110139 =
2014-07-28 22:54 METAR KOFP 290254Z AUTO 31004KT 10SM CLR 22/13 A2986 RMK AO2 SLP109 T02170133
                 51023 =
2014-07-28 21:54 METAR KOFP 290154Z AUTO 31005KT 10SM BKN070 23/14 A2985 RMK AO2 SLP105 T02330139
                 =
2014-07-28 20:54 METAR KOFP 290054Z AUTO 30003KT 10SM SCT075 24/14 A2982 RMK AO2 SLP097 T02390139
                 =
2014-07-28 18:54 METAR KOFP 282254Z AUTO 29012KT 10SM SCT065 BKN080 28/14 A2977 RMK AO2 SLP078
                 T02830139 =
2014-07-28 17:54 METAR KOFP 282154Z AUTO 26012G16KT 10SM FEW095 29/13 A2976 RMK AO2 SLP074
                 T02890128 =
2014-07-28 16:54 METAR KOFP 282054Z AUTO 25014G20KT 10SM BKN095 29/13 A2975 RMK AO2 SLP071
                 T02940128 53005 =
2014-07-28 15:54 METAR KOFP 281954Z AUTO 26017G24KT 10SM CLR 30/12 A2974 RMK AO2 SLP068 T03000122
                 =
2014-07-28 14:54 METAR KOFP 281854Z AUTO 29013G18KT 10SM BKN095 29/13 A2974 RMK AO2 SLP067
                 T02940133 =
2014-07-28 13:54 METAR KOFP 281754Z AUTO 27009KT 10SM FEW075 BKN095 29/15 A2973 RMK AO2 SLP066
                 T02890150 10306 20256 51007 =
2014-07-28 12:54 METAR KOFP 281654Z AUTO 28015G21KT 10SM FEW060 FEW075 BKN090 29/14 A2973 RMK AO2
                 SLP065 T02940144 =
2014-07-28 11:54 METAR KOFP 281554Z AUTO 29014KT 10SM FEW055 BKN070 28/15 A2973 RMK AO2 SLP063
                 T02830150 =
2014-07-28 10:54 METAR KOFP 281454Z AUTO 26012G18KT 10SM CLR 29/16 A2971 RMK AO2 SLP058 T02940161
                 53010 =
2014-07-28 09:54 METAR KOFP 281354Z AUTO 25010G19KT 10SM CLR 29/16 A2970 RMK AO2 SLP053 T02890161
                 =
2014-07-28 08:54 METAR KOFP 281254Z AUTO 26009KT 10SM CLR 27/19 A2969 RMK AO2 SLP051 T02720189 =

Support USWX by starting your Amazon purchase here.